Time;durP1;ratioP1;P1;durP2;ratioP2;P2;SDS_P1;SDS_P2;PMS_P1;PMS_P2;Temp;Humidity;BMP_temperature;BMP_pressure;BME280_temperature;BME280_humidity;BME280_pressure;Samples;Min_cycle;Max_cycle;Signal;HPM_P1;HPM_P2
2023/10/31 00:01:58;;;;;;;20.70;15.10;;;;;;;8.87;100.00;99509.94;5263417;28;20029;-75
2023/10/31 00:04:30;;;;;;;15.47;13.77;;;;;;;8.82;100.00;99519.59;5262922;28;20477;-75
2023/10/31 00:07:01;;;;;;;14.63;11.93;;;;;;;8.76;100.00;99526.66;5262553;28;20082;-76
2023/10/31 00:09:33;;;;;;;17.03;13.27;;;;;;;8.76;100.00;99525.81;5262993;28;20369;-76
2023/10/31 00:12:04;;;;;;;14.27;10.87;;;;;;;8.74;100.00;99533.66;5263222;28;20025;-76
2023/10/31 00:14:36;;;;;;;15.40;11.03;;;;;;;8.75;100.00;99534.50;5262655;28;20033;-76
2023/10/31 00:17:07;;;;;;;13.67;9.70;;;;;;;8.75;100.00;99540.53;5277939;28;20053;-75
2023/10/31 00:19:38;;;;;;;12.63;9.33;;;;;;;8.76;100.00;99539.66;5262616;28;20491;-76
2023/10/31 00:22:10;;;;;;;13.70;8.63;;;;;;;8.73;100.00;99544.94;5263001;28;20033;-76
2023/10/31 00:24:42;;;;;;;11.67;8.30;;;;;;;8.71;100.00;99540.66;5262810;28;20465;-77
2023/10/31 00:27:14;;;;;;;12.00;6.87;;;;;;;8.70;100.00;99537.19;5262529;28;20499;-76
2023/10/31 00:29:46;;;;;;;11.98;6.43;;;;;;;8.70;100.00;99538.97;5263022;28;20330;-76
2023/10/31 00:32:17;;;;;;;9.27;6.87;;;;;;;8.67;100.00;99534.69;5261172;28;20041;-76
2023/10/31 00:34:49;;;;;;;12.80;7.00;;;;;;;8.70;100.00;99539.81;5263147;28;20447;-75
2023/10/31 00:37:20;;;;;;;12.43;6.33;;;;;;;8.73;100.00;99544.09;5263846;28;20203;-77
2023/10/31 00:39:51;;;;;;;12.37;5.90;;;;;;;8.71;100.00;99544.13;5263174;28;20021;-76
2023/10/31 00:42:23;;;;;;;10.43;6.40;;;;;;;8.72;100.00;99542.34;5264956;28;20033;-83
2023/10/31 00:44:54;;;;;;;9.13;5.63;;;;;;;8.79;100.00;99546.53;5262520;28;20039;-77
2023/10/31 00:47:25;;;;;;;11.60;5.93;;;;;;;8.77;100.00;99550.88;5263232;28;20488;-78
2023/10/31 00:49:57;;;;;;;9.27;6.03;;;;;;;8.78;100.00;99565.59;5263144;28;20121;-76
2023/10/31 00:52:28;;;;;;;12.67;5.60;;;;;;;8.76;100.00;99564.78;5263520;28;20064;-76
2023/10/31 00:55:00;;;;;;;12.97;6.03;;;;;;;8.73;100.00;99563.13;5263259;28;20052;-75
2023/10/31 00:57:31;;;;;;;10.43;5.63;;;;;;;8.78;100.00;99568.19;5262902;28;20033;-75
2023/10/31 01:00:03;;;;;;;7.17;5.47;;;;;;;8.75;100.00;99566.50;5266946;28;20025;-77
2023/10/31 01:02:34;;;;;;;10.93;5.63;;;;;;;8.73;100.00;99565.72;5266534;28;20056;-76
2023/10/31 01:05:05;;;;;;;10.57;6.13;;;;;;;8.77;100.00;99574.28;5266627;28;20112;-77
2023/10/31 01:07:37;;;;;;;10.23;6.60;;;;;;;8.76;100.00;99578.63;5266346;28;20029;-77
2023/10/31 01:10:09;;;;;;;14.30;7.60;;;;;;;8.79;100.00;99576.84;5266267;28;20041;-76
2023/10/31 01:12:40;;;;;;;16.63;9.68;;;;;;;8.80;100.00;99575.97;5266212;28;20029;-78
2023/10/31 01:15:12;;;;;;;20.30;11.37;;;;;;;8.86;100.00;99583.59;5266309;28;20033;-75
2023/10/31 01:17:43;;;;;;;22.53;13.53;;;;;;;8.81;100.00;99582.88;5265966;28;20194;-76
2023/10/31 01:20:15;;;;;;;23.83;16.27;;;;;;;8.81;100.00;99588.91;5265878;28;20135;-76
2023/10/31 01:22:46;;;;;;;26.17;18.00;;;;;;;8.86;100.00;99588.81;5265483;28;20048;-76
2023/10/31 01:25:17;;;;;;;25.80;19.07;;;;;;;8.84;100.00;99585.38;5265230;28;20025;-75
2023/10/31 01:27:49;;;;;;;33.60;21.67;;;;;;;8.86;100.00;99594.84;5265165;28;20033;-76
2023/10/31 01:30:20;;;;;;;35.17;23.07;;;;;;;8.84;100.00;99585.38;5265195;28;20036;-74
2023/10/31 01:32:51;;;;;;;32.60;23.33;;;;;;;8.87;100.00;99593.09;5265653;28;20068;-76
2023/10/31 01:35:23;;;;;;;36.80;25.53;;;;;;;8.89;100.00;99588.72;5264004;28;20444;-76
2023/10/31 01:37:54;;;;;;;37.70;26.97;;;;;;;8.88;100.00;99600.00;5265302;28;20431;-77
2023/10/31 01:40:25;;;;;;;40.93;29.77;;;;;;;8.88;100.00;99587.00;5264975;28;20036;-77
2023/10/31 01:42:57;;;;;;;42.53;29.90;;;;;;;8.87;100.00;99591.38;5264957;28;20033;-77
2023/10/31 01:45:28;;;;;;;39.37;31.13;;;;;;;8.89;100.00;99591.31;5265235;28;20033;-77
2023/10/31 01:48:00;;;;;;;40.60;30.83;;;;;;;8.91;100.00;99595.56;5280526;28;20468;-77
2023/10/31 01:50:31;;;;;;;47.80;31.60;;;;;;;8.92;100.00;99586.91;5265015;28;20044;-76
2023/10/31 01:53:03;;;;;;;44.63;33.43;;;;;;;8.94;100.00;99586.84;5265593;28;20029;-76
2023/10/31 01:55:34;;;;;;;49.47;36.27;;;;;;;8.93;100.00;99585.13;5265801;28;20112;-76
2023/10/31 01:58:06;;;;;;;45.63;33.73;;;;;;;8.94;100.00;99586.84;5265071;28;20083;-76
2023/10/31 02:00:40;;;;;;;50.43;35.73;;;;;;;8.93;100.00;99588.63;5264689;28;20113;-76
2023/10/31 02:03:12;;;;;;;49.20;36.60;;;;;;;8.94;100.00;99595.50;5265039;28;20036;-75
2023/10/31 02:05:45;;;;;;;47.85;35.80;;;;;;;8.93;100.00;99596.41;5265204;28;20442;-76
2023/10/31 02:08:17;;;;;;;;;;;;;;;8.94;100.00;99605.06;5265293;28;20121;-76
2023/10/31 02:10:48;;;;;;;53.55;37.38;;;;;;;8.98;100.00;99611.88;5262769;28;20000;-75
2023/10/31 02:13:20;;;;;;;52.77;37.50;;;;;;;8.99;100.00;99603.19;5264570;28;20032;-76
2023/10/31 02:15:51;;;;;;;54.77;38.23;;;;;;;9.02;100.00;99600.50;5264587;28;20056;-76
2023/10/31 02:18:22;;;;;;;49.90;35.63;;;;;;;9.03;100.00;99599.63;5264546;28;20057;-76
2023/10/31 02:20:54;;;;;;;51.90;38.63;;;;;;;9.05;100.00;99603.03;5264929;28;20029;-76
2023/10/31 02:23:25;;;;;;;49.03;36.23;;;;;;;9.07;100.00;99596.03;5264357;28;20052;-75
2023/10/31 02:25:57;;;;;;;50.63;35.23;;;;;;;9.09;100.00;99594.25;5264224;28;20040;-76
2023/10/31 02:28:28;;;;;;;48.57;34.60;;;;;;;9.10;100.00;99597.72;5264580;28;20120;-76
2023/10/31 02:31:00;;;;;;;54.90;35.37;;;;;;;9.12;100.00;99601.13;5264247;28;20272;-76
2023/10/31 02:33:31;;;;;;;53.17;34.77;;;;;;;9.11;100.00;99596.81;5264551;28;20036;-76
2023/10/31 02:36:03;;;;;;;49.10;35.13;;;;;;;9.13;100.00;99592.44;5263938;28;20055;-76
2023/10/31 02:38:34;;;;;;;51.43;36.27;;;;;;;9.13;100.00;99613.25;5264318;28;20464;-75
2023/10/31 02:41:05;;;;;;;50.83;37.47;;;;;;;9.12;100.00;99611.53;5264285;28;20056;-76
2023/10/31 02:43:38;;;;;;;51.27;37.73;;;;;;;9.11;100.00;99612.41;5264385;28;20040;-76
2023/10/31 02:46:12;;;;;;;;;;;;;;;9.09;100.00;99611.59;5264441;28;20055;-76
2023/10/31 02:48:43;;;;;;;52.17;35.85;;;;;;;9.09;100.00;99619.41;5263872;28;20340;-76
2023/10/31 02:51:14;;;;;;;50.67;38.10;;;;;;;9.05;100.00;99618.63;5263717;28;20032;-76
2023/10/31 02:53:46;;;;;;;51.47;38.00;;;;;;;9.05;100.00;99621.22;5263900;28;20094;-75
2023/10/31 02:56:19;;;;;;;53.47;37.03;;;;;;;9.06;100.00;99614.28;5279645;28;20033;-76
2023/10/31 02:58:50;;;;;;;56.08;37.60;;;;;;;9.07;100.00;99616.00;5264427;28;20536;-77
2023/10/31 03:01:22;;;;;;;51.17;36.30;;;;;;;9.08;100.00;99622.88;5262920;28;20127;-77
2023/10/31 03:03:53;;;;;;;47.00;36.23;;;;;;;9.07;100.00;99624.63;5264500;28;20083;-76
2023/10/31 03:06:24;;;;;;;44.37;37.43;;;;;;;9.06;100.00;99629.88;5263895;28;20025;-77
2023/10/31 03:08:56;;;;;;;49.37;37.00;;;;;;;9.08;100.00;99634.16;5264052;28;20090;-76
2023/10/31 03:11:27;;;;;;;47.73;36.47;;;;;;;9.07;100.00;99627.25;5264252;28;20029;-76
2023/10/31 03:13:59;;;;;;;43.50;34.70;;;;;;;9.09;100.00;99633.25;5264701;28;20024;-76
2023/10/31 03:16:30;;;;;;;49.23;36.80;;;;;;;9.09;100.00;99640.19;5264408;28;20052;-76
2023/10/31 03:19:02;;;;;;;46.13;36.33;;;;;;;9.13;100.00;99647.88;5262960;28;20307;-76
2023/10/31 03:21:33;;;;;;;45.73;36.00;;;;;;;9.15;100.00;99647.84;5264028;28;20037;-76
2023/10/31 03:24:05;;;;;;;44.23;36.53;;;;;;;9.14;100.00;99659.13;5264443;28;20025;-76
2023/10/31 03:26:36;;;;;;;47.67;37.40;;;;;;;9.18;100.00;99665.13;5264079;28;20033;-76
2023/10/31 03:29:08;;;;;;;43.97;36.43;;;;;;;9.18;100.00;99659.94;5263513;28;20056;-75
2023/10/31 03:31:39;;;;;;;47.77;37.73;;;;;;;9.18;100.00;99663.38;5263672;28;20051;-76
2023/10/31 03:34:10;;;;;;;44.00;37.43;;;;;;;9.18;100.00;99671.16;5279517;28;20032;-75
2023/10/31 03:36:42;;;;;;;44.27;36.17;;;;;;;9.19;100.00;99683.25;5263036;28;20092;-76
2023/10/31 03:39:13;;;;;;;45.97;36.93;;;;;;;9.20;100.00;99678.94;5263365;28;20056;-76
2023/10/31 03:41:46;;;;;;;47.07;37.83;;;;;;;9.21;100.00;99672.81;5263767;28;20472;-77
2023/10/31 03:44:17;;;;;;;49.78;38.38;;;;;;;9.21;100.00;99667.63;5262908;28;20469;-76
2023/10/31 03:46:49;;;;;;;45.50;37.67;;;;;;;9.21;100.00;99673.69;5262871;28;20090;-76
2023/10/31 03:49:20;;;;;;;46.10;36.97;;;;;;;9.20;100.00;99691.94;5263251;28;20586;-76
2023/10/31 03:51:52;;;;;;;48.57;38.90;;;;;;;9.21;100.00;99691.91;5264245;28;20087;-75
2023/10/31 03:54:23;;;;;;;48.53;39.13;;;;;;;9.22;100.00;99697.94;5268876;28;20029;-76
2023/10/31 03:56:54;;;;;;;48.27;38.77;;;;;;;9.23;100.00;99705.72;5264832;28;20060;-77
2023/10/31 03:59:26;;;;;;;49.70;39.40;;;;;;;9.22;100.00;99703.16;5267277;28;20059;-76
2023/10/31 04:01:57;;;;;;;47.47;38.50;;;;;;;9.23;100.00;99713.50;5266782;28;20103;-75
2023/10/31 04:04:28;;;;;;;46.57;38.83;;;;;;;9.22;100.00;99708.34;5262553;28;20036;-76
2023/10/31 04:07:00;;;;;;;47.63;39.53;;;;;;;9.21;100.00;99711.81;5261111;28;20037;-76
2023/10/31 04:09:31;;;;;;;52.23;40.50;;;;;;;9.23;100.00;99716.13;5262766;28;20099;-75
2023/10/31 04:12:03;;;;;;;52.53;42.10;;;;;;;9.21;100.00;99714.44;5262593;28;20048;-76
2023/10/31 04:14:35;;;;;;;46.63;41.57;;;;;;;9.19;100.00;99716.22;5262591;28;20108;-74
2023/10/31 04:17:06;;;;;;;42.33;34.63;;;;;;;9.20;100.00;99710.97;5261983;28;20037;-76
2023/10/31 04:19:37;;;;;;;41.33;36.20;;;;;;;9.19;100.00;99722.25;5261969;28;20032;-76
2023/10/31 04:22:09;;;;;;;41.27;34.90;;;;;;;9.15;100.00;99720.66;5262010;28;20028;-76
2023/10/31 04:24:41;;;;;;;41.77;33.77;;;;;;;9.12;100.00;99726.75;5262349;28;20431;-76
2023/10/31 04:27:12;;;;;;;39.50;32.93;;;;;;;9.11;100.00;99726.78;5262184;28;20091;-76
2023/10/31 04:29:44;;;;;;;37.13;32.87;;;;;;;9.12;100.00;99737.16;5260942;28;20654;-76
2023/10/31 04:32:15;;;;;;;38.28;31.42;;;;;;;9.12;100.00;99734.56;5261962;28;20106;-75
2023/10/31 04:34:47;;;;;;;38.70;32.50;;;;;;;9.12;100.00;99736.31;5261610;28;20423;-76
2023/10/31 04:37:18;;;;;;;38.73;32.07;;;;;;;9.13;100.00;99743.25;5261466;28;20435;-75
2023/10/31 04:39:50;;;;;;;38.73;33.97;;;;;;;9.12;100.00;99751.91;5261901;28;20041;-75
2023/10/31 04:42:22;;;;;;;34.47;29.53;;;;;;;9.14;100.00;99760.53;5262373;28;20368;-75
2023/10/31 04:44:53;;;;;;;37.35;33.33;;;;;;;9.10;100.00;99751.09;5261951;28;20040;-75
2023/10/31 04:47:25;;;;;;;37.33;31.07;;;;;;;9.09;100.00;99755.44;5261960;28;20124;-75
2023/10/31 04:49:56;;;;;;;36.60;30.50;;;;;;;9.10;100.00;99766.72;5262335;28;20037;-76
2023/10/31 04:52:27;;;;;;;36.17;31.40;;;;;;;9.08;100.00;99771.06;5262238;28;20457;-75
2023/10/31 04:54:59;;;;;;;30.27;26.67;;;;;;;9.03;100.00;99784.19;5262026;28;20082;-75
2023/10/31 04:57:31;;;;;;;32.93;27.17;;;;;;;8.99;100.00;99772.13;5262572;28;20025;-76
2023/10/31 05:00:05;;;;;;;32.07;24.83;;;;;;;8.96;100.00;99780.00;5262313;28;20028;-75
2023/10/31 05:02:37;;;;;;;28.98;23.58;;;;;;;8.98;100.00;99783.41;5260664;28;20037;-75
2023/10/31 05:05:08;;;;;;;36.30;28.00;;;;;;;8.96;100.00;99774.81;5261855;28;20040;-76
2023/10/31 05:07:39;;;;;;;35.30;28.37;;;;;;;8.97;100.00;99780.84;5262131;28;20025;-75
2023/10/31 05:10:11;;;;;;;40.37;31.80;;;;;;;8.99;100.00;99790.34;5261830;28;20075;-76
2023/10/31 05:12:42;;;;;;;42.27;32.53;;;;;;;9.01;100.00;99787.69;5261248;28;20048;-76
2023/10/31 05:15:14;;;;;;;45.13;34.90;;;;;;;8.97;100.00;99781.72;5262337;28;20071;-76
2023/10/31 05:17:45;;;;;;;40.83;33.10;;;;;;;8.94;100.00;99776.59;5262071;28;20499;-75
2023/10/31 05:20:16;;;;;;;44.90;34.37;;;;;;;8.97;100.00;99775.66;5262146;28;20211;-77
2023/10/31 05:22:48;;;;;;;42.03;34.47;;;;;;;8.92;100.00;99771.44;5262330;28;20033;-76
2023/10/31 05:25:19;;;;;;;46.03;36.53;;;;;;;8.89;100.00;99773.25;5262261;28;20056;-77
2023/10/31 05:27:52;;;;;;;49.00;34.93;;;;;;;8.89;100.00;99774.09;5261381;28;20029;-77
2023/10/31 05:30:23;;;;;;;42.08;34.95;;;;;;;8.85;100.00;99772.44;5260449;28;20468;-76
2023/10/31 05:32:55;;;;;;;45.07;34.57;;;;;;;8.85;100.00;99767.25;5260560;28;20083;-76
2023/10/31 05:35:26;;;;;;;43.60;35.47;;;;;;;8.82;100.00;99766.47;5261542;28;20040;-76
2023/10/31 05:37:57;;;;;;;42.77;36.83;;;;;;;8.79;100.00;99766.53;5261897;28;20372;-76
2023/10/31 05:40:29;;;;;;;43.47;34.13;;;;;;;8.81;100.00;99773.41;5261498;28;20477;-75
2023/10/31 05:43:02;;;;;;;42.60;36.10;;;;;;;8.80;100.00;99783.84;5261285;28;20037;-76
2023/10/31 05:45:33;;;;;;;42.58;35.33;;;;;;;8.80;100.00;99791.63;5263891;28;20124;-75
2023/10/31 05:48:05;;;;;;;39.70;34.17;;;;;;;8.76;100.00;99793.44;5264860;28;20120;-76
2023/10/31 05:50:36;;;;;;;40.47;34.33;;;;;;;8.75;100.00;99802.97;5265621;28;20078;-76
2023/10/31 05:53:08;;;;;;;41.97;33.60;;;;;;;8.71;100.00;99801.34;5264966;28;20085;-76
2023/10/31 05:55:39;;;;;;;41.07;34.03;;;;;;;8.68;100.00;99800.56;5263651;28;20087;-76
2023/10/31 05:58:12;;;;;;;43.33;33.80;;;;;;;8.66;100.00;99818.78;5265361;28;20119;-76
2023/10/31 06:00:43;;;;;;;39.78;33.45;;;;;;;8.61;100.00;99807.59;5264430;28;20037;-76
2023/10/31 06:03:15;;;;;;;38.30;33.50;;;;;;;8.56;100.00;99820.69;5265026;28;20366;-76
2023/10/31 06:05:46;;;;;;;36.60;31.73;;;;;;;8.53;100.00;99823.34;5263776;28;20087;-76
2023/10/31 06:08:17;;;;;;;37.03;31.10;;;;;;;8.49;100.00;99828.63;5264732;28;20071;-76
2023/10/31 06:10:49;;;;;;;35.30;30.03;;;;;;;8.44;100.00;99833.06;5265009;28;20037;-76
2023/10/31 06:13:21;;;;;;;37.47;29.93;;;;;;;8.39;100.00;99833.97;5264612;28;20108;-76
2023/10/31 06:15:56;;;;;;;35.97;28.33;;;;;;;8.37;100.00;99835.75;5263327;28;20106;-76
2023/10/31 06:18:28;;;;;;;36.47;30.05;;;;;;;8.32;100.00;99837.59;5265023;28;20135;-74
2023/10/31 06:21:00;;;;;;;36.53;31.07;;;;;;;8.27;100.00;99836.78;5264354;28;20135;-76
2023/10/31 06:23:31;;;;;;;37.47;30.70;;;;;;;8.25;100.00;99840.31;5264497;28;20029;-76
2023/10/31 06:26:02;;;;;;;39.50;30.67;;;;;;;8.16;100.00;99849.97;5262994;28;20067;-76
2023/10/31 06:28:35;;;;;;;38.87;30.87;;;;;;;8.21;100.00;99857.66;5263210;28;20040;-75
2023/10/31 06:31:06;;;;;;;;;;;;;;;8.19;100.00;99864.63;5264207;28;20458;-75
2023/10/31 06:33:38;;;;;;;41.88;29.90;;;;;;;8.30;100.00;99867.88;5264217;28;19913;-76
2023/10/31 06:36:09;;;;;;;42.43;32.50;;;;;;;8.32;100.00;99860.94;5264080;28;20067;-76
2023/10/31 06:38:40;;;;;;;44.83;33.30;;;;;;;8.34;100.00;99859.16;5264185;28;20024;-76
2023/10/31 06:41:12;;;;;;;41.00;33.43;;;;;;;8.40;100.00;99861.66;5264799;28;20025;-76
2023/10/31 06:43:43;;;;;;;44.27;35.07;;;;;;;8.40;100.00;99868.56;5264175;28;20033;-76
2023/10/31 06:46:15;;;;;;;41.23;32.60;;;;;;;8.46;100.00;99875.44;5263852;28;20079;-76
2023/10/31 06:48:47;;;;;;;41.90;31.95;;;;;;;8.50;100.00;99872.75;5263944;28;20098;-75
2023/10/31 06:51:18;;;;;;;36.60;31.63;;;;;;;8.52;100.00;99873.56;5263489;28;20456;-75
2023/10/31 06:53:51;;;;;;;39.43;32.17;;;;;;;8.55;100.00;99877.88;5264322;28;20071;-76
2023/10/31 06:56:22;;;;;;;;;;;;;;;8.59;100.00;99882.09;5264049;28;20029;-76
2023/10/31 06:58:53;;;;;;;36.72;31.48;;;;;;;8.58;100.00;99888.19;5263514;28;20003;-77
2023/10/31 07:01:25;;;;;;;34.30;30.70;;;;;;;8.59;100.00;99887.31;5263889;28;20029;-76
2023/10/31 07:03:56;;;;;;;35.43;29.63;;;;;;;8.54;100.00;99883.94;5263818;28;20484;-76
2023/10/31 07:06:28;;;;;;;31.80;27.87;;;;;;;8.51;100.00;99887.44;5263587;28;20391;-75
2023/10/31 07:09:04;;;;;;;31.30;28.00;;;;;;;8.53;100.00;99890.00;5263612;28;20033;-76
2023/10/31 07:11:36;;;;;;;30.35;27.15;;;;;;;8.51;100.00;99887.44;5262608;28;20056;-76
2023/10/31 07:14:07;;;;;;;31.37;28.10;;;;;;;8.59;100.00;99895.09;5263109;28;20037;-76
2023/10/31 07:16:38;;;;;;;29.93;26.70;;;;;;;8.60;100.00;99895.94;5263146;28;20037;-75
2023/10/31 07:19:10;;;;;;;28.13;25.20;;;;;;;8.59;100.00;99897.69;5278296;28;20041;-75
2023/10/31 07:21:42;;;;;;;28.80;25.80;;;;;;;8.60;100.00;99898.53;5263022;28;20028;-75
2023/10/31 07:24:13;;;;;;;28.20;25.20;;;;;;;8.59;100.00;99892.50;5263090;28;20025;-77
2023/10/31 07:26:44;;;;;;;25.87;22.90;;;;;;;8.59;100.00;99902.88;5262871;28;20094;-76
2023/10/31 07:29:16;;;;;;;26.57;23.80;;;;;;;8.60;100.00;99911.53;5263103;28;20040;-76
2023/10/31 07:31:47;;;;;;;25.37;22.67;;;;;;;8.65;100.00;99905.38;5261358;28;20029;-75
2023/10/31 07:34:19;;;;;;;24.87;22.23;;;;;;;8.66;100.00;99914.03;5262968;28;20183;-76
2023/10/31 07:36:50;;;;;;;25.70;23.10;;;;;;;8.70;100.00;99918.28;5262815;28;20464;-76
2023/10/31 07:39:22;;;;;;;24.07;21.87;;;;;;;8.67;100.00;99918.34;5262625;28;20028;-76
2023/10/31 07:41:54;;;;;;;24.80;22.23;;;;;;;8.66;100.00;99917.50;5262540;28;20068;-76
2023/10/31 07:44:25;;;;;;;24.70;22.37;;;;;;;8.66;100.00;99914.03;5262368;28;20568;-75
2023/10/31 07:46:57;;;;;;;25.40;22.80;;;;;;;8.67;100.00;99918.34;5263520;28;20495;-75
2023/10/31 07:49:28;;;;;;;26.10;23.03;;;;;;;8.71;100.00;99922.56;5262754;28;20029;-76
2023/10/31 07:51:59;;;;;;;25.17;22.67;;;;;;;8.76;100.00;99921.63;5261330;28;20093;-75
2023/10/31 07:54:31;;;;;;;26.27;23.50;;;;;;;8.77;100.00;99919.88;5262605;28;20071;-76
2023/10/31 07:57:02;;;;;;;25.37;22.87;;;;;;;8.81;100.00;99920.69;5262640;28;20037;-76
2023/10/31 07:59:34;;;;;;;28.73;25.73;;;;;;;8.86;100.00;99930.09;5262550;28;20040;-75
2023/10/31 08:02:06;;;;;;;31.67;26.88;;;;;;;8.89;100.00;99927.44;5263227;28;20033;-75
2023/10/31 08:04:37;;;;;;;30.35;27.40;;;;;;;8.96;100.00;99922.97;5262425;28;20102;-75
2023/10/31 08:07:09;;;;;;;30.90;27.67;;;;;;;9.02;100.00;99938.44;5262346;28;20057;-74
2023/10/31 08:09:40;;;;;;;31.03;27.73;;;;;;;9.20;100.00;99933.75;5262462;28;20063;-76
2023/10/31 08:12:12;;;;;;;31.57;28.13;;;;;;;9.29;100.00;99933.56;5262320;28;20036;-75
2023/10/31 08:14:43;;;;;;;33.60;30.13;;;;;;;9.33;100.00;99945.59;5262540;28;20033;-75
2023/10/31 08:17:14;;;;;;;32.83;29.80;;;;;;;9.34;100.00;99939.53;5262147;28;20033;-76
2023/10/31 08:19:47;;;;;;;32.90;29.60;;;;;;;9.39;100.00;99949.84;5262697;28;20033;-75
2023/10/31 08:22:18;;;;;;;;;;;;;;;9.49;100.00;99944.38;5262832;28;20098;-76
2023/10/31 08:24:50;;;;;;;31.63;28.20;;;;;;;9.28;100.00;99945.69;5265555;28;19913;-75
2023/10/31 08:27:21;;;;;;;29.90;26.87;;;;;;;9.37;100.00;99946.38;5265776;28;20037;-75
2023/10/31 08:29:52;;;;;;;28.87;26.00;;;;;;;9.40;100.00;99952.41;5264646;28;20021;-76
2023/10/31 08:32:24;;;;;;;30.00;26.13;;;;;;;9.49;100.00;99954.78;5263724;28;20097;-74
2023/10/31 08:34:57;;;;;;;29.07;26.13;;;;;;;9.57;100.00;99959.84;5263121;28;20074;-76
2023/10/31 08:37:29;;;;;;;27.85;25.13;;;;;;;9.58;100.00;99960.69;5262323;28;20029;-75
2023/10/31 08:40:03;;;;;;;26.87;24.03;;;;;;;9.68;100.00;99957.84;5262422;28;20029;-77
2023/10/31 08:42:34;;;;;;;27.92;25.00;;;;;;;9.72;100.00;99957.78;5263331;28;20029;-76
2023/10/31 08:45:06;;;;;;;27.53;24.70;;;;;;;9.79;100.00;99968.03;5264374;28;20052;-75
2023/10/31 08:47:37;;;;;;;27.97;23.50;;;;;;;9.67;100.00;99971.75;5264147;28;20366;-76
2023/10/31 08:50:09;;;;;;;27.20;23.27;;;;;;;9.73;100.00;99980.31;5265453;28;20068;-76
2023/10/31 08:52:40;;;;;;;24.77;22.17;;;;;;;9.90;100.00;99983.41;5265879;28;20040;-75
2023/10/31 08:55:12;;;;;;;26.17;22.70;;;;;;;10.22;100.00;99994.78;5265372;28;20040;-75
2023/10/31 08:57:43;;;;;;;25.17;22.30;;;;;;;10.34;100.00;99998.91;5264554;28;20041;-76
2023/10/31 09:00:15;;;;;;;23.17;19.53;;;;;;;10.27;100.00;100008.59;5263140;28;20029;-75
2023/10/31 09:02:47;;;;;;;23.48;21.05;;;;;;;10.29;100.00;100005.91;5262496;28;20109;-76
2023/10/31 09:05:18;;;;;;;24.38;19.98;;;;;;;10.37;100.00;100012.72;5262431;28;20033;-76
2023/10/31 09:07:50;;;;;;;21.33;19.33;;;;;;;10.38;100.00;100023.97;5261986;28;20031;-76
2023/10/31 09:10:21;;;;;;;22.27;19.90;;;;;;;10.30;100.00;100025.88;5261953;28;20503;-75
2023/10/31 09:12:52;;;;;;;20.30;17.97;;;;;;;10.16;100.00;100026.22;5260766;28;20095;-75
2023/10/31 09:15:24;;;;;;;21.97;19.90;;;;;;;10.10;100.00;100028.97;5261872;28;20516;-76
2023/10/31 09:17:55;;;;;;;23.27;19.80;;;;;;;10.30;100.00;100031.09;5261443;28;20053;-76
2023/10/31 09:20:27;;;;;;;23.93;20.07;;;;;;;10.41;100.00;100031.72;5265469;28;20037;-76
2023/10/31 09:22:59;;;;;;;20.98;18.88;;;;;;;10.70;100.00;100048.38;5265771;28;20030;-75
2023/10/31 09:25:30;;;;;;;19.00;17.03;;;;;;;10.90;100.00;100043.53;5265884;28;20060;-76
2023/10/31 09:28:01;;;;;;;19.77;17.67;;;;;;;11.04;100.00;100050.13;5265529;28;20384;-76
2023/10/31 09:30:33;;;;;;;20.47;18.27;;;;;;;11.10;100.00;100052.56;5264168;28;20123;-74
2023/10/31 09:33:04;;;;;;;17.70;15.80;;;;;;;10.91;100.00;100071.28;5265692;28;20468;-75
2023/10/31 09:35:35;;;;;;;18.60;16.63;;;;;;;10.87;100.00;100068.84;5266167;28;20025;-75
2023/10/31 09:38:07;;;;;;;17.97;16.20;;;;;;;10.57;100.00;100079.97;5265293;28;20132;-75
2023/10/31 09:40:38;;;;;;;18.43;16.53;;;;;;;10.46;100.00;100087.16;5264936;28;20540;-74
2023/10/31 09:43:10;;;;;;;18.17;16.23;;;;;;;10.38;100.00;100081.28;5265131;28;20491;-74
2023/10/31 09:45:42;;;;;;;21.40;16.53;;;;;;;10.36;100.00;100089.13;5264781;28;20029;-74
2023/10/31 09:48:13;;;;;;;18.98;16.98;;;;;;;10.37;100.00;100084.81;5265150;28;20452;-75
2023/10/31 09:50:47;;;;;;;18.63;16.77;;;;;;;10.41;100.00;100083.81;5263715;28;20043;-75
2023/10/31 09:53:19;;;;;;;18.67;16.10;;;;;;;10.47;100.00;100088.91;5265295;28;20441;-75
2023/10/31 09:55:51;;;;;;;16.45;14.75;;;;;;;10.61;100.00;100088.59;5265197;28;20361;-76
2023/10/31 09:58:22;;;;;;;16.50;14.88;;;;;;;10.58;100.00;100086.06;5265108;28;20064;-75
2023/10/31 10:00:54;;;;;;;17.47;15.33;;;;;;;10.58;100.00;100091.25;5265037;28;20087;-75
2023/10/31 10:03:27;;;;;;;19.13;16.25;;;;;;;10.66;100.00;100093.66;5264908;28;20040;-75
2023/10/31 10:05:59;;;;;;;15.98;14.27;;;;;;;10.87;100.00;100100.97;5265109;28;20102;-75
2023/10/31 10:08:30;;;;;;;15.03;13.63;;;;;;;11.04;100.00;100099.69;5265264;28;20025;-75
2023/10/31 10:11:02;;;;;;;15.97;14.23;;;;;;;11.09;100.00;100118.66;5265378;28;20064;-76
2023/10/31 10:13:33;;;;;;;16.43;14.83;;;;;;;10.89;100.00;100107.00;5265420;28;20057;-76
2023/10/31 10:16:05;;;;;;;19.37;13.90;;;;;;;10.85;100.00;100117.53;5266339;28;20267;-76
2023/10/31 10:18:40;;;;;;;16.07;14.47;;;;;;;10.80;100.00;100119.41;5265887;28;20103;-77
2023/10/31 10:21:11;;;;;;;15.15;13.65;;;;;;;10.86;100.00;100122.72;5266266;28;20081;-76
2023/10/31 10:23:42;;;;;;;16.27;14.70;;;;;;;11.02;100.00;100117.97;5264373;28;20120;-76
2023/10/31 10:26:14;;;;;;;15.27;13.67;;;;;;;11.22;100.00;100127.03;5263851;28;20036;-75
2023/10/31 10:28:48;;;;;;;14.53;13.20;;;;;;;11.29;100.00;100132.06;5265069;28;20049;-76
2023/10/31 10:31:19;;;;;;;12.65;11.43;;;;;;;11.22;100.00;100133.13;5264203;28;20128;-75
2023/10/31 10:33:50;;;;;;;13.07;11.73;;;;;;;11.20;100.00;100136.66;5263057;28;20041;-74
2023/10/31 10:36:23;;;;;;;13.80;11.97;;;;;;;11.22;100.00;100143.56;5264531;28;20451;-75
2023/10/31 10:38:57;;;;;;;12.68;11.45;;;;;;;11.07;100.00;100143.94;5263150;28;20422;-75
2023/10/31 10:41:29;;;;;;;12.82;11.38;;;;;;;11.04;100.00;100146.63;5264313;28;20087;-75
2023/10/31 10:44:06;;;;;;;12.70;11.40;;;;;;;11.22;100.00;100155.72;5279374;28;20490;-74
2023/10/31 10:46:39;;;;;;;13.80;12.02;;;;;;;11.12;100.00;100160.31;5264745;28;20045;-75
2023/10/31 10:49:13;;;;;;;14.45;12.38;;;;;;;11.28;100.00;100166.88;5263977;28;20033;-75
2023/10/31 10:52:02;;;;;;;18.23;12.77;;;;;;;11.29;100.00;100163.38;5264663;28;20036;-75
2023/10/31 10:54:51;;;;;;;12.90;11.60;;;;;;;11.18;100.00;100170.59;5263744;28;20029;-76
2023/10/31 10:57:36;;;;;;;12.73;11.52;;;;;;;10.99;100.00;100166.75;5264078;28;20178;-75
2023/10/31 11:00:12;;;;;;;13.55;12.02;;;;;;;10.86;100.00;100164.44;5264001;28;20368;-75
2023/10/31 11:02:45;;;;;;;14.10;12.70;;;;;;;10.83;100.00;100158.44;5263748;28;20086;-75
2023/10/31 11:05:17;;;;;;;16.17;13.48;;;;;;;10.83;100.00;100159.28;5263677;28;20432;-73
2023/10/31 11:07:49;;;;;;;15.77;14.27;;;;;;;10.75;100.00;100159.50;5262260;28;20025;-75
2023/10/31 11:10:21;;;;;;;16.73;15.02;;;;;;;10.95;100.00;100156.38;5263500;28;20075;-74
2023/10/31 11:12:53;;;;;;;16.08;14.43;;;;;;;11.00;100.00;100156.28;5263357;28;20025;-75
2023/10/31 11:15:26;;;;;;;15.70;13.80;;;;;;;10.94;100.00;100167.69;5263595;28;20496;-75
2023/10/31 11:17:58;;;;;;;15.35;13.75;;;;;;;10.84;100.00;100160.16;5263443;28;20041;-75
2023/10/31 11:20:31;;;;;;;;;;;;;;;11.03;100.00;100165.75;5263790;28;20430;-74
2023/10/31 11:23:06;;;;;;;14.10;12.70;;;;;;;11.10;100.00;100175.16;5263286;28;19967;-75
2023/10/31 11:25:43;;;;;;;15.82;12.77;;;;;;;11.18;100.00;100173.22;5263152;28;20051;-75
2023/10/31 11:28:17;;;;;;;14.38;12.68;;;;;;;11.07;100.00;100181.31;5263152;28;20090;-75
2023/10/31 11:30:50;;;;;;;15.95;13.38;;;;;;;11.25;100.00;100173.91;5262840;28;20033;-74
2023/10/31 11:33:21;;;;;;;13.95;12.18;;;;;;;11.23;100.00;100183.53;5263824;28;20065;-76
2023/10/31 11:36:03;;;;;;;13.80;11.43;;;;;;;11.17;100.00;100175.88;5263144;28;20171;-75
2023/10/31 11:38:37;;;;;;;15.35;12.35;;;;;;;11.20;100.00;100178.41;5263302;28;20102;-75